sensor_id;sensor_type;location;lat;lon;timestamp;temperature;humidity
16066;DHT22;8137;48.952;8.970;2023-06-10T00:01:01;15.50;99.90
16066;DHT22;8137;48.952;8.970;2023-06-10T00:03:26;15.50;99.90
16066;DHT22;8137;48.952;8.970;2023-06-10T00:05:52;15.40;99.90
16066;DHT22;8137;48.952;8.970;2023-06-10T00:08:18;15.30;99.90
16066;DHT22;8137;48.952;8.970;2023-06-10T00:10:45;15.30;99.90
16066;DHT22;8137;48.952;8.970;2023-06-10T00:13:10;15.30;99.90
16066;DHT22;8137;48.952;8.970;2023-06-10T00:15:37;15.20;99.90
16066;DHT22;8137;48.952;8.970;2023-06-10T00:18:03;15.20;99.90
16066;DHT22;8137;48.952;8.970;2023-06-10T00:20:29;15.20;99.90
16066;DHT22;8137;48.952;8.970;2023-06-10T00:22:56;15.20;99.90
16066;DHT22;8137;48.952;8.970;2023-06-10T00:25:22;15.20;99.90
16066;DHT22;8137;48.952;8.970;2023-06-10T00:27:48;15.20;99.90
16066;DHT22;8137;48.952;8.970;2023-06-10T00:30:13;15.10;99.90
16066;DHT22;8137;48.952;8.970;2023-06-10T00:32:39;15.10;99.90
16066;DHT22;8137;48.952;8.970;2023-06-10T00:35:06;15.10;99.90
16066;DHT22;8137;48.952;8.970;2023-06-10T00:37:32;15.00;99.90
16066;DHT22;8137;48.952;8.970;2023-06-10T00:40:00;14.90;99.90
16066;DHT22;8137;48.952;8.970;2023-06-10T00:42:25;14.90;99.90
16066;DHT22;8137;48.952;8.970;2023-06-10T00:44:51;14.90;99.90
16066;DHT22;8137;48.952;8.970;2023-06-10T00:47:17;14.80;99.90
16066;DHT22;8137;48.952;8.970;2023-06-10T00:49:43;14.80;99.90
16066;DHT22;8137;48.952;8.970;2023-06-10T00:52:09;14.90;99.90
16066;DHT22;8137;48.952;8.970;2023-06-10T00:54:37;14.90;99.90
16066;DHT22;8137;48.952;8.970;2023-06-10T00:57:03;14.80;99.90
16066;DHT22;8137;48.952;8.970;2023-06-10T00:59:29;14.80;99.90
16066;DHT22;8137;48.952;8.970;2023-06-10T01:01:56;14.70;99.90
16066;DHT22;8137;48.952;8.970;2023-06-10T01:04:22;14.70;99.90
16066;DHT22;8137;48.952;8.970;2023-06-10T01:07:20;14.60;99.90
16066;DHT22;8137;48.952;8.970;2023-06-10T01:10:05;14.60;99.90
16066;DHT22;8137;48.952;8.970;2023-06-10T01:12:39;14.50;99.90
16066;DHT22;8137;48.952;8.970;2023-06-10T01:15:08;14.50;99.90
16066;DHT22;8137;48.952;8.970;2023-06-10T01:17:34;14.50;99.90
16066;DHT22;8137;48.952;8.970;2023-06-10T01:20:01;14.50;99.90
16066;DHT22;8137;48.952;8.970;2023-06-10T01:22:37;14.40;99.90
16066;DHT22;8137;48.952;8.970;2023-06-10T01:25:02;14.40;99.90
16066;DHT22;8137;48.952;8.970;2023-06-10T01:27:31;14.40;99.90
16066;DHT22;8137;48.952;8.970;2023-06-10T01:30:19;14.40;99.90
16066;DHT22;8137;48.952;8.970;2023-06-10T01:32:50;14.40;99.90
16066;DHT22;8137;48.952;8.970;2023-06-10T01:35:17;14.30;99.90
16066;DHT22;8137;48.952;8.970;2023-06-10T01:37:46;14.30;99.90
16066;DHT22;8137;48.952;8.970;2023-06-10T01:40:12;14.30;99.90
16066;DHT22;8137;48.952;8.970;2023-06-10T01:42:38;14.30;99.90
16066;DHT22;8137;48.952;8.970;2023-06-10T01:45:04;14.30;99.90
16066;DHT22;8137;48.952;8.970;2023-06-10T01:47:30;14.20;99.90
16066;DHT22;8137;48.952;8.970;2023-06-10T01:49:56;14.20;99.90
16066;DHT22;8137;48.952;8.970;2023-06-10T01:52:22;14.20;99.90
16066;DHT22;8137;48.952;8.970;2023-06-10T01:54:47;14.20;99.90
16066;DHT22;8137;48.952;8.970;2023-06-10T01:57:13;14.10;99.90
16066;DHT22;8137;48.952;8.970;2023-06-10T01:59:38;14.10;99.90
16066;DHT22;8137;48.952;8.970;2023-06-10T02:02:04;14.00;99.90
16066;DHT22;8137;48.952;8.970;2023-06-10T02:04:30;14.00;99.90
16066;DHT22;8137;48.952;8.970;2023-06-10T02:06:56;14.00;99.90
16066;DHT22;8137;48.952;8.970;2023-06-10T02:09:22;14.10;99.90
16066;DHT22;8137;48.952;8.970;2023-06-10T02:11:48;14.00;99.90
16066;DHT22;8137;48.952;8.970;2023-06-10T02:14:14;14.00;99.90
16066;DHT22;8137;48.952;8.970;2023-06-10T02:16:40;13.90;99.90
16066;DHT22;8137;48.952;8.970;2023-06-10T02:19:06;13.90;99.90
16066;DHT22;8137;48.952;8.970;2023-06-10T02:21:32;14.00;99.90
16066;DHT22;8137;48.952;8.970;2023-06-10T02:23:59;14.00;99.90
16066;DHT22;8137;48.952;8.970;2023-06-10T02:26:25;13.90;99.90
16066;DHT22;8137;48.952;8.970;2023-06-10T02:28:51;13.90;99.90
16066;DHT22;8137;48.952;8.970;2023-06-10T02:31:17;13.90;99.90
16066;DHT22;8137;48.952;8.970;2023-06-10T02:33:43;13.80;99.90
16066;DHT22;8137;48.952;8.970;2023-06-10T02:36:10;13.70;99.90
16066;DHT22;8137;48.952;8.970;2023-06-10T02:38:41;13.70;99.90
16066;DHT22;8137;48.952;8.970;2023-06-10T02:41:06;13.70;99.90
16066;DHT22;8137;48.952;8.970;2023-06-10T02:43:32;13.60;99.90
16066;DHT22;8137;48.952;8.970;2023-06-10T02:45:58;13.60;99.90
16066;DHT22;8137;48.952;8.970;2023-06-10T02:48:27;13.60;99.90
16066;DHT22;8137;48.952;8.970;2023-06-10T02:50:53;13.60;99.90
16066;DHT22;8137;48.952;8.970;2023-06-10T02:53:19;13.50;99.90
16066;DHT22;8137;48.952;8.970;2023-06-10T02:55:44;13.50;99.90
16066;DHT22;8137;48.952;8.970;2023-06-10T02:58:10;13.50;99.90
16066;DHT22;8137;48.952;8.970;2023-06-10T03:00:35;13.50;99.90
16066;DHT22;8137;48.952;8.970;2023-06-10T03:03:02;13.50;99.90
16066;DHT22;8137;48.952;8.970;2023-06-10T03:05:29;13.50;99.90
16066;DHT22;8137;48.952;8.970;2023-06-10T03:07:55;13.40;99.90
16066;DHT22;8137;48.952;8.970;2023-06-10T03:10:20;13.40;99.90
16066;DHT22;8137;48.952;8.970;2023-06-10T03:12:46;13.30;99.90
16066;DHT22;8137;48.952;8.970;2023-06-10T03:15:12;13.30;99.90
16066;DHT22;8137;48.952;8.970;2023-06-10T03:17:37;13.30;99.90
16066;DHT22;8137;48.952;8.970;2023-06-10T03:20:03;13.30;99.90
16066;DHT22;8137;48.952;8.970;2023-06-10T03:22:33;13.30;99.90
16066;DHT22;8137;48.952;8.970;2023-06-10T03:24:59;13.30;99.90
16066;DHT22;8137;48.952;8.970;2023-06-10T03:27:25;13.30;99.90
16066;DHT22;8137;48.952;8.970;2023-06-10T03:29:51;13.30;99.90
16066;DHT22;8137;48.952;8.970;2023-06-10T03:32:16;13.30;99.90
16066;DHT22;8137;48.952;8.970;2023-06-10T03:34:43;13.30;99.90
16066;DHT22;8137;48.952;8.970;2023-06-10T03:37:10;13.30;99.90
16066;DHT22;8137;48.952;8.970;2023-06-10T03:39:36;13.20;99.90
16066;DHT22;8137;48.952;8.970;2023-06-10T03:42:01;13.30;99.90
16066;DHT22;8137;48.952;8.970;2023-06-10T03:44:27;13.30;99.90
16066;DHT22;8137;48.952;8.970;2023-06-10T03:46:54;13.40;99.90
16066;DHT22;8137;48.952;8.970;2023-06-10T03:49:20;13.40;99.90
16066;DHT22;8137;48.952;8.970;2023-06-10T03:51:45;13.40;99.90
16066;DHT22;8137;48.952;8.970;2023-06-10T03:54:11;13.50;99.90
16066;DHT22;8137;48.952;8.970;2023-06-10T03:56:37;13.50;99.90
16066;DHT22;8137;48.952;8.970;2023-06-10T03:59:02;13.50;99.90
16066;DHT22;8137;48.952;8.970;2023-06-10T04:01:28;13.60;99.90
16066;DHT22;8137;48.952;8.970;2023-06-10T04:03:53;13.70;99.90
16066;DHT22;8137;48.952;8.970;2023-06-10T04:06:20;13.80;99.90
16066;DHT22;8137;48.952;8.970;2023-06-10T04:08:46;14.00;99.90
16066;DHT22;8137;48.952;8.970;2023-06-10T04:11:12;14.00;99.90
16066;DHT22;8137;48.952;8.970;2023-06-10T04:13:38;14.20;99.90
16066;DHT22;8137;48.952;8.970;2023-06-10T04:16:04;14.20;99.90
16066;DHT22;8137;48.952;8.970;2023-06-10T04:18:29;14.30;99.90
16066;DHT22;8137;48.952;8.970;2023-06-10T04:20:55;14.40;99.90
16066;DHT22;8137;48.952;8.970;2023-06-10T04:23:22;14.50;99.90
16066;DHT22;8137;48.952;8.970;2023-06-10T04:25:48;14.60;99.90
16066;DHT22;8137;48.952;8.970;2023-06-10T04:28:13;14.70;99.90
16066;DHT22;8137;48.952;8.970;2023-06-10T04:30:39;14.70;99.90
16066;DHT22;8137;48.952;8.970;2023-06-10T04:33:04;14.80;99.90
16066;DHT22;8137;48.952;8.970;2023-06-10T04:35:32;14.90;99.90
16066;DHT22;8137;48.952;8.970;2023-06-10T04:37:57;15.00;99.90
16066;DHT22;8137;48.952;8.970;2023-06-10T04:40:23;15.10;99.90
16066;DHT22;8137;48.952;8.970;2023-06-10T04:42:49;15.10;99.90
16066;DHT22;8137;48.952;8.970;2023-06-10T04:45:14;15.20;99.90
16066;DHT22;8137;48.952;8.970;2023-06-10T04:47:40;15.20;99.90
16066;DHT22;8137;48.952;8.970;2023-06-10T04:50:06;15.20;99.90
16066;DHT22;8137;48.952;8.970;2023-06-10T04:52:32;15.30;99.90
16066;DHT22;8137;48.952;8.970;2023-06-10T04:54:59;15.30;99.90
16066;DHT22;8137;48.952;8.970;2023-06-10T04:57:24;15.40;99.90
16066;DHT22;8137;48.952;8.970;2023-06-10T04:59:52;15.50;99.90
16066;DHT22;8137;48.952;8.970;2023-06-10T05:02:17;15.60;99.90
16066;DHT22;8137;48.952;8.970;2023-06-10T05:04:43;15.70;99.90
16066;DHT22;8137;48.952;8.970;2023-06-10T05:07:08;15.90;99.90
16066;DHT22;8137;48.952;8.970;2023-06-10T05:09:34;16.00;99.90
16066;DHT22;8137;48.952;8.970;2023-06-10T05:12:00;16.20;99.90
16066;DHT22;8137;48.952;8.970;2023-06-10T05:14:25;16.40;99.90
16066;DHT22;8137;48.952;8.970;2023-06-10T05:16:51;16.50;99.90
16066;DHT22;8137;48.952;8.970;2023-06-10T05:19:17;16.60;99.90
16066;DHT22;8137;48.952;8.970;2023-06-10T05:21:43;16.80;99.90
16066;DHT22;8137;48.952;8.970;2023-06-10T05:24:09;16.90;99.90
16066;DHT22;8137;48.952;8.970;2023-06-10T05:26:35;17.10;99.90
16066;DHT22;8137;48.952;8.970;2023-06-10T05:29:05;17.30;99.90
16066;DHT22;8137;48.952;8.970;2023-06-10T05:31:31;17.50;99.90
16066;DHT22;8137;48.952;8.970;2023-06-10T05:33:57;17.60;99.90
16066;DHT22;8137;48.952;8.970;2023-06-10T05:36:23;17.70;99.90
16066;DHT22;8137;48.952;8.970;2023-06-10T05:38:50;17.90;99.90
16066;DHT22;8137;48.952;8.970;2023-06-10T05:41:16;18.00;99.90
16066;DHT22;8137;48.952;8.970;2023-06-10T05:43:41;18.10;99.90
16066;DHT22;8137;48.952;8.970;2023-06-10T05:46:07;18.30;99.90
16066;DHT22;8137;48.952;8.970;2023-06-10T05:48:33;18.40;99.90
16066;DHT22;8137;48.952;8.970;2023-06-10T05:50:58;18.50;99.90
16066;DHT22;8137;48.952;8.970;2023-06-10T05:53:24;18.60;99.90
16066;DHT22;8137;48.952;8.970;2023-06-10T05:55:50;18.80;99.90
16066;DHT22;8137;48.952;8.970;2023-06-10T05:58:16;18.90;99.90
16066;DHT22;8137;48.952;8.970;2023-06-10T06:00:42;19.00;99.90
16066;DHT22;8137;48.952;8.970;2023-06-10T06:03:08;19.10;99.90
16066;DHT22;8137;48.952;8.970;2023-06-10T06:05:34;19.20;99.90
16066;DHT22;8137;48.952;8.970;2023-06-10T06:08:04;19.30;99.90
16066;DHT22;8137;48.952;8.970;2023-06-10T06:10:30;19.40;99.90
16066;DHT22;8137;48.952;8.970;2023-06-10T06:12:56;19.60;99.90
16066;DHT22;8137;48.952;8.970;2023-06-10T06:15:21;19.60;99.90
16066;DHT22;8137;48.952;8.970;2023-06-10T06:17:47;19.70;99.90
16066;DHT22;8137;48.952;8.970;2023-06-10T06:20:12;19.80;99.90
16066;DHT22;8137;48.952;8.970;2023-06-10T06:22:38;19.90;99.90
16066;DHT22;8137;48.952;8.970;2023-06-10T06:25:04;20.10;99.90
16066;DHT22;8137;48.952;8.970;2023-06-10T06:27:30;20.10;99.90
16066;DHT22;8137;48.952;8.970;2023-06-10T06:29:56;20.20;99.90
16066;DHT22;8137;48.952;8.970;2023-06-10T06:32:21;20.30;99.90
16066;DHT22;8137;48.952;8.970;2023-06-10T06:34:48;20.40;99.90
16066;DHT22;8137;48.952;8.970;2023-06-10T06:37:22;20.50;99.90
16066;DHT22;8137;48.952;8.970;2023-06-10T06:39:52;20.70;99.90
16066;DHT22;8137;48.952;8.970;2023-06-10T06:42:18;20.70;99.90
16066;DHT22;8137;48.952;8.970;2023-06-10T06:44:44;20.90;99.90
16066;DHT22;8137;48.952;8.970;2023-06-10T06:47:10;20.90;99.90
16066;DHT22;8137;48.952;8.970;2023-06-10T06:49:36;21.10;99.90
16066;DHT22;8137;48.952;8.970;2023-06-10T06:52:02;21.20;99.90
16066;DHT22;8137;48.952;8.970;2023-06-10T06:54:27;21.40;99.90
16066;DHT22;8137;48.952;8.970;2023-06-10T06:56:53;21.60;99.90
16066;DHT22;8137;48.952;8.970;2023-06-10T06:59:19;21.50;99.90
16066;DHT22;8137;48.952;8.970;2023-06-10T07:01:46;21.50;99.90
16066;DHT22;8137;48.952;8.970;2023-06-10T07:04:11;21.80;99.90
16066;DHT22;8137;48.952;8.970;2023-06-10T07:06:37;21.80;99.90
16066;DHT22;8137;48.952;8.970;2023-06-10T07:09:04;21.90;99.90
16066;DHT22;8137;48.952;8.970;2023-06-10T07:11:30;21.80;99.90
16066;DHT22;8137;48.952;8.970;2023-06-10T07:13:56;21.90;99.90
16066;DHT22;8137;48.952;8.970;2023-06-10T07:16:22;22.10;99.90
16066;DHT22;8137;48.952;8.970;2023-06-10T07:18:47;22.20;99.90
16066;DHT22;8137;48.952;8.970;2023-06-10T07:21:13;22.30;99.90
16066;DHT22;8137;48.952;8.970;2023-06-10T07:23:42;22.30;99.90
16066;DHT22;8137;48.952;8.970;2023-06-10T07:26:08;22.50;99.90
16066;DHT22;8137;48.952;8.970;2023-06-10T07:28:36;22.60;99.90
16066;DHT22;8137;48.952;8.970;2023-06-10T07:31:02;22.90;99.90
16066;DHT22;8137;48.952;8.970;2023-06-10T07:33:28;22.90;99.90
16066;DHT22;8137;48.952;8.970;2023-06-10T07:35:54;22.90;99.90
16066;DHT22;8137;48.952;8.970;2023-06-10T07:38:19;23.10;99.90
16066;DHT22;8137;48.952;8.970;2023-06-10T07:40:45;23.30;99.90
16066;DHT22;8137;48.952;8.970;2023-06-10T07:43:11;23.50;99.90
16066;DHT22;8137;48.952;8.970;2023-06-10T07:45:39;23.70;99.90
16066;DHT22;8137;48.952;8.970;2023-06-10T07:48:05;23.80;99.90
16066;DHT22;8137;48.952;8.970;2023-06-10T07:50:30;24.10;99.90
16066;DHT22;8137;48.952;8.970;2023-06-10T07:52:56;24.20;99.90
16066;DHT22;8137;48.952;8.970;2023-06-10T07:55:21;24.40;99.90
16066;DHT22;8137;48.952;8.970;2023-06-10T07:57:47;24.50;99.90
16066;DHT22;8137;48.952;8.970;2023-06-10T08:00:13;24.50;99.90
16066;DHT22;8137;48.952;8.970;2023-06-10T08:02:39;24.30;99.90
16066;DHT22;8137;48.952;8.970;2023-06-10T08:05:04;24.40;99.90
16066;DHT22;8137;48.952;8.970;2023-06-10T08:07:30;24.40;99.90
16066;DHT22;8137;48.952;8.970;2023-06-10T08:09:57;24.40;99.90
16066;DHT22;8137;48.952;8.970;2023-06-10T08:12:22;24.60;99.90
16066;DHT22;8137;48.952;8.970;2023-06-10T08:14:48;24.80;99.90
16066;DHT22;8137;48.952;8.970;2023-06-10T08:17:13;25.00;99.90
16066;DHT22;8137;48.952;8.970;2023-06-10T08:19:39;25.20;99.90
16066;DHT22;8137;48.952;8.970;2023-06-10T08:22:05;25.40;99.90
16066;DHT22;8137;48.952;8.970;2023-06-10T08:24:30;25.40;99.90
16066;DHT22;8137;48.952;8.970;2023-06-10T08:26:56;25.20;99.90
16066;DHT22;8137;48.952;8.970;2023-06-10T08:29:23;25.30;99.90
16066;DHT22;8137;48.952;8.970;2023-06-10T08:31:48;25.50;99.90
16066;DHT22;8137;48.952;8.970;2023-06-10T08:34:14;25.60;99.90
16066;DHT22;8137;48.952;8.970;2023-06-10T08:36:40;25.80;99.90
16066;DHT22;8137;48.952;8.970;2023-06-10T08:39:06;26.00;99.90
16066;DHT22;8137;48.952;8.970;2023-06-10T08:41:36;26.20;99.90
16066;DHT22;8137;48.952;8.970;2023-06-10T08:44:22;26.20;99.90
16066;DHT22;8137;48.952;8.970;2023-06-10T08:46:52;26.30;99.90
16066;DHT22;8137;48.952;8.970;2023-06-10T08:49:19;26.40;99.90
16066;DHT22;8137;48.952;8.970;2023-06-10T08:51:49;26.50;99.90
16066;DHT22;8137;48.952;8.970;2023-06-10T08:54:22;26.50;99.90
16066;DHT22;8137;48.952;8.970;2023-06-10T08:56:51;26.40;99.90
16066;DHT22;8137;48.952;8.970;2023-06-10T08:59:18;26.20;99.90
16066;DHT22;8137;48.952;8.970;2023-06-10T09:01:47;26.20;99.90
16066;DHT22;8137;48.952;8.970;2023-06-10T09:04:13;26.40;99.90
16066;DHT22;8137;48.952;8.970;2023-06-10T09:06:40;26.60;99.90
16066;DHT22;8137;48.952;8.970;2023-06-10T09:09:07;26.80;99.90
16066;DHT22;8137;48.952;8.970;2023-06-10T09:11:33;26.90;99.90
16066;DHT22;8137;48.952;8.970;2023-06-10T09:13:58;26.90;99.90
16066;DHT22;8137;48.952;8.970;2023-06-10T09:16:25;26.90;99.90
16066;DHT22;8137;48.952;8.970;2023-06-10T09:18:51;26.90;99.90
16066;DHT22;8137;48.952;8.970;2023-06-10T09:21:24;26.70;99.90
16066;DHT22;8137;48.952;8.970;2023-06-10T09:23:50;26.70;99.90
16066;DHT22;8137;48.952;8.970;2023-06-10T09:26:16;27.00;99.90
16066;DHT22;8137;48.952;8.970;2023-06-10T09:28:48;27.20;99.90
16066;DHT22;8137;48.952;8.970;2023-06-10T09:31:13;27.40;99.90
16066;DHT22;8137;48.952;8.970;2023-06-10T09:33:44;27.60;99.90
16066;DHT22;8137;48.952;8.970;2023-06-10T09:36:09;27.60;99.90
16066;DHT22;8137;48.952;8.970;2023-06-10T09:38:35;27.40;99.90
16066;DHT22;8137;48.952;8.970;2023-06-10T09:41:03;27.60;99.90
16066;DHT22;8137;48.952;8.970;2023-06-10T09:43:43;27.60;99.90
16066;DHT22;8137;48.952;8.970;2023-06-10T09:46:19;27.00;99.90
16066;DHT22;8137;48.952;8.970;2023-06-10T09:48:46;26.70;99.90
16066;DHT22;8137;48.952;8.970;2023-06-10T09:51:13;26.40;99.90
16066;DHT22;8137;48.952;8.970;2023-06-10T09:53:39;26.20;99.90
16066;DHT22;8137;48.952;8.970;2023-06-10T09:56:05;26.30;99.90
16066;DHT22;8137;48.952;8.970;2023-06-10T09:58:38;26.70;99.90
16066;DHT22;8137;48.952;8.970;2023-06-10T10:01:12;27.30;99.90
16066;DHT22;8137;48.952;8.970;2023-06-10T10:03:46;27.30;98.70
16066;DHT22;8137;48.952;8.970;2023-06-10T10:06:14;27.60;98.60
16066;DHT22;8137;48.952;8.970;2023-06-10T10:08:40;27.90;97.90
16066;DHT22;8137;48.952;8.970;2023-06-10T10:11:05;27.70;94.50
16066;DHT22;8137;48.952;8.970;2023-06-10T10:13:33;27.90;96.40
16066;DHT22;8137;48.952;8.970;2023-06-10T10:16:04;28.40;95.30
16066;DHT22;8137;48.952;8.970;2023-06-10T10:18:31;28.70;94.30
16066;DHT22;8137;48.952;8.970;2023-06-10T10:21:01;28.80;92.80
16066;DHT22;8137;48.952;8.970;2023-06-10T10:26:25;28.20;87.10
16066;DHT22;8137;48.952;8.970;2023-06-10T10:29:07;28.40;85.00
16066;DHT22;8137;48.952;8.970;2023-06-10T10:31:36;28.50;83.50
16066;DHT22;8137;48.952;8.970;2023-06-10T10:34:07;28.60;77.20
16066;DHT22;8137;48.952;8.970;2023-06-10T10:36:35;29.10;75.90
16066;DHT22;8137;48.952;8.970;2023-06-10T10:39:03;29.40;72.80
16066;DHT22;8137;48.952;8.970;2023-06-10T10:41:31;29.50;75.30
16066;DHT22;8137;48.952;8.970;2023-06-10T10:43:57;29.50;64.90
16066;DHT22;8137;48.952;8.970;2023-06-10T10:46:22;29.90;63.20
16066;DHT22;8137;48.952;8.970;2023-06-10T10:48:52;30.00;59.10
16066;DHT22;8137;48.952;8.970;2023-06-10T10:51:19;29.80;56.50
16066;DHT22;8137;48.952;8.970;2023-06-10T10:54:11;29.80;52.40
16066;DHT22;8137;48.952;8.970;2023-06-10T10:56:38;29.80;50.40
16066;DHT22;8137;48.952;8.970;2023-06-10T10:59:04;29.40;53.30
16066;DHT22;8137;48.952;8.970;2023-06-10T11:01:43;29.30;50.50
16066;DHT22;8137;48.952;8.970;2023-06-10T11:04:12;29.00;50.10
16066;DHT22;8137;48.952;8.970;2023-06-10T11:06:37;29.00;51.30
16066;DHT22;8137;48.952;8.970;2023-06-10T11:09:26;29.30;54.10
16066;DHT22;8137;48.952;8.970;2023-06-10T11:11:56;29.30;53.80
16066;DHT22;8137;48.952;8.970;2023-06-10T11:14:27;29.40;51.50
16066;DHT22;8137;48.952;8.970;2023-06-10T11:16:57;29.50;50.40
16066;DHT22;8137;48.952;8.970;2023-06-10T11:19:36;29.90;47.70
16066;DHT22;8137;48.952;8.970;2023-06-10T11:22:06;30.00;46.30
16066;DHT22;8137;48.952;8.970;2023-06-10T11:24:32;30.20;42.20
16066;DHT22;8137;48.952;8.970;2023-06-10T11:27:20;30.30;42.10
16066;DHT22;8137;48.952;8.970;2023-06-10T11:32:32;29.60;42.00
16066;DHT22;8137;48.952;8.970;2023-06-10T11:34:58;29.70;43.40
16066;DHT22;8137;48.952;8.970;2023-06-10T11:37:24;29.70;42.50
16066;DHT22;8137;48.952;8.970;2023-06-10T11:39:56;29.90;39.90
16066;DHT22;8137;48.952;8.970;2023-06-10T11:42:22;29.90;41.80
16066;DHT22;8137;48.952;8.970;2023-06-10T11:44:52;30.20;41.50
16066;DHT22;8137;48.952;8.970;2023-06-10T11:47:18;30.50;36.80
16066;DHT22;8137;48.952;8.970;2023-06-10T11:49:45;30.30;35.30
16066;DHT22;8137;48.952;8.970;2023-06-10T11:52:11;30.30;36.10
16066;DHT22;8137;48.952;8.970;2023-06-10T11:54:37;30.60;36.90
16066;DHT22;8137;48.952;8.970;2023-06-10T11:57:03;31.20;35.70
16066;DHT22;8137;48.952;8.970;2023-06-10T11:59:29;31.70;33.40
16066;DHT22;8137;48.952;8.970;2023-06-10T12:01:56;31.50;28.50
16066;DHT22;8137;48.952;8.970;2023-06-10T12:04:21;30.90;28.00
16066;DHT22;8137;48.952;8.970;2023-06-10T12:06:54;30.40;29.20
16066;DHT22;8137;48.952;8.970;2023-06-10T12:09:28;30.20;34.20
16066;DHT22;8137;48.952;8.970;2023-06-10T12:12:12;30.30;31.60
16066;DHT22;8137;48.952;8.970;2023-06-10T12:17:23;30.70;31.00
16066;DHT22;8137;48.952;8.970;2023-06-10T12:19:50;31.30;29.80
16066;DHT22;8137;48.952;8.970;2023-06-10T12:22:15;31.50;26.70
16066;DHT22;8137;48.952;8.970;2023-06-10T12:24:46;32.00;28.60
16066;DHT22;8137;48.952;8.970;2023-06-10T12:27:22;32.70;28.60
16066;DHT22;8137;48.952;8.970;2023-06-10T12:29:52;33.10;27.10
16066;DHT22;8137;48.952;8.970;2023-06-10T12:32:19;33.50;26.00
16066;DHT22;8137;48.952;8.970;2023-06-10T12:34:48;33.60;23.30
16066;DHT22;8137;48.952;8.970;2023-06-10T12:37:13;33.50;22.60
16066;DHT22;8137;48.952;8.970;2023-06-10T12:39:40;33.00;20.20
16066;DHT22;8137;48.952;8.970;2023-06-10T12:42:06;32.40;20.00
16066;DHT22;8137;48.952;8.970;2023-06-10T12:44:39;31.40;20.90
16066;DHT22;8137;48.952;8.970;2023-06-10T12:47:11;30.50;22.20
16066;DHT22;8137;48.952;8.970;2023-06-10T12:49:40;29.90;23.30
16066;DHT22;8137;48.952;8.970;2023-06-10T12:52:06;29.60;25.00
16066;DHT22;8137;48.952;8.970;2023-06-10T12:54:32;29.90;24.80
16066;DHT22;8137;48.952;8.970;2023-06-10T12:56:58;30.30;26.70
16066;DHT22;8137;48.952;8.970;2023-06-10T12:59:24;30.90;24.30
16066;DHT22;8137;48.952;8.970;2023-06-10T13:01:53;31.20;24.00
16066;DHT22;8137;48.952;8.970;2023-06-10T13:04:19;31.40;20.80
16066;DHT22;8137;48.952;8.970;2023-06-10T13:06:46;31.30;21.90
16066;DHT22;8137;48.952;8.970;2023-06-10T13:09:13;31.20;21.80
16066;DHT22;8137;48.952;8.970;2023-06-10T13:11:39;31.60;20.10
16066;DHT22;8137;48.952;8.970;2023-06-10T13:14:05;32.00;21.50
16066;DHT22;8137;48.952;8.970;2023-06-10T13:16:32;31.60;18.70
16066;DHT22;8137;48.952;8.970;2023-06-10T13:18:58;31.40;20.10
16066;DHT22;8137;48.952;8.970;2023-06-10T13:21:23;31.40;19.00
16066;DHT22;8137;48.952;8.970;2023-06-10T13:23:49;31.50;19.30
16066;DHT22;8137;48.952;8.970;2023-06-10T13:26:15;31.20;19.10
16066;DHT22;8137;48.952;8.970;2023-06-10T13:28:44;30.90;18.10
16066;DHT22;8137;48.952;8.970;2023-06-10T13:31:10;31.00;19.40
16066;DHT22;8137;48.952;8.970;2023-06-10T13:33:36;31.30;18.80
16066;DHT22;8137;48.952;8.970;2023-06-10T13:36:01;31.50;17.90
16066;DHT22;8137;48.952;8.970;2023-06-10T13:38:27;31.60;16.60
16066;DHT22;8137;48.952;8.970;2023-06-10T13:40:52;31.80;15.80
16066;DHT22;8137;48.952;8.970;2023-06-10T13:43:18;31.90;16.70
16066;DHT22;8137;48.952;8.970;2023-06-10T13:45:44;31.90;17.10
16066;DHT22;8137;48.952;8.970;2023-06-10T13:48:10;31.70;16.50
16066;DHT22;8137;48.952;8.970;2023-06-10T13:50:37;31.50;17.50
16066;DHT22;8137;48.952;8.970;2023-06-10T13:53:02;31.40;16.60
16066;DHT22;8137;48.952;8.970;2023-06-10T13:55:28;31.50;17.50
16066;DHT22;8137;48.952;8.970;2023-06-10T13:57:54;31.30;15.80
16066;DHT22;8137;48.952;8.970;2023-06-10T14:00:19;31.30;15.50
16066;DHT22;8137;48.952;8.970;2023-06-10T14:02:45;31.20;14.20
16066;DHT22;8137;48.952;8.970;2023-06-10T14:05:11;31.00;14.50
16066;DHT22;8137;48.952;8.970;2023-06-10T14:07:37;30.70;14.90
16066;DHT22;8137;48.952;8.970;2023-06-10T14:10:03;30.90;15.50
16066;DHT22;8137;48.952;8.970;2023-06-10T14:12:29;31.10;15.20
16066;DHT22;8137;48.952;8.970;2023-06-10T14:14:55;31.00;14.50
16066;DHT22;8137;48.952;8.970;2023-06-10T14:17:20;31.00;16.00
16066;DHT22;8137;48.952;8.970;2023-06-10T14:19:46;31.00;15.20
16066;DHT22;8137;48.952;8.970;2023-06-10T14:22:11;30.80;15.50
16066;DHT22;8137;48.952;8.970;2023-06-10T14:24:37;30.80;15.70
16066;DHT22;8137;48.952;8.970;2023-06-10T14:27:03;30.80;16.80
16066;DHT22;8137;48.952;8.970;2023-06-10T14:29:29;30.50;17.00
16066;DHT22;8137;48.952;8.970;2023-06-10T14:31:56;30.00;17.50
16066;DHT22;8137;48.952;8.970;2023-06-10T14:34:21;29.60;18.10
16066;DHT22;8137;48.952;8.970;2023-06-10T14:36:48;29.40;18.90
16066;DHT22;8137;48.952;8.970;2023-06-10T14:39:14;29.20;19.30
16066;DHT22;8137;48.952;8.970;2023-06-10T14:41:40;29.50;19.30
16066;DHT22;8137;48.952;8.970;2023-06-10T14:44:05;29.80;18.30
16066;DHT22;8137;48.952;8.970;2023-06-10T14:46:31;30.10;19.20
16066;DHT22;8137;48.952;8.970;2023-06-10T14:48:56;30.40;18.80
16066;DHT22;8137;48.952;8.970;2023-06-10T14:51:24;30.70;17.80
16066;DHT22;8137;48.952;8.970;2023-06-10T14:53:50;30.80;16.00
16066;DHT22;8137;48.952;8.970;2023-06-10T14:56:16;31.10;17.80
16066;DHT22;8137;48.952;8.970;2023-06-10T14:58:41;30.90;15.60
16066;DHT22;8137;48.952;8.970;2023-06-10T15:01:07;30.80;15.00
16066;DHT22;8137;48.952;8.970;2023-06-10T15:03:32;30.60;16.30
16066;DHT22;8137;48.952;8.970;2023-06-10T15:05:58;30.60;15.80
16066;DHT22;8137;48.952;8.970;2023-06-10T15:08:25;30.60;15.30
16066;DHT22;8137;48.952;8.970;2023-06-10T15:10:51;30.90;15.40
16066;DHT22;8137;48.952;8.970;2023-06-10T15:13:17;31.10;16.00
16066;DHT22;8137;48.952;8.970;2023-06-10T15:15:42;31.10;14.70
16066;DHT22;8137;48.952;8.970;2023-06-10T15:18:08;31.10;14.80
16066;DHT22;8137;48.952;8.970;2023-06-10T15:20:33;31.10;14.50
16066;DHT22;8137;48.952;8.970;2023-06-10T15:22:59;31.20;13.40
16066;DHT22;8137;48.952;8.970;2023-06-10T15:25:25;31.10;14.30
16066;DHT22;8137;48.952;8.970;2023-06-10T15:27:51;30.90;14.90
16066;DHT22;8137;48.952;8.970;2023-06-10T15:30:17;30.80;16.60
16066;DHT22;8137;48.952;8.970;2023-06-10T15:32:43;30.70;16.00
16066;DHT22;8137;48.952;8.970;2023-06-10T15:35:08;30.50;16.20
16066;DHT22;8137;48.952;8.970;2023-06-10T15:37:34;30.30;16.00
16066;DHT22;8137;48.952;8.970;2023-06-10T15:40:00;30.30;16.60
16066;DHT22;8137;48.952;8.970;2023-06-10T15:42:26;30.10;17.40
16066;DHT22;8137;48.952;8.970;2023-06-10T15:44:51;30.20;17.10
16066;DHT22;8137;48.952;8.970;2023-06-10T15:47:19;30.10;16.50
16066;DHT22;8137;48.952;8.970;2023-06-10T15:49:44;30.30;17.10
16066;DHT22;8137;48.952;8.970;2023-06-10T15:52:10;30.50;17.50